createdAt,value
2019-01-06T00:00:29.011Z,33.10
2019-01-06T00:03:15.259Z,32.30
2019-01-06T00:05:58.691Z,32.20
2019-01-06T00:08:44.612Z,32.30
2019-01-06T00:11:45.079Z,32.30
2019-01-06T00:14:45.763Z,32.20
2019-01-06T00:17:46.339Z,32.20
2019-01-06T00:20:47.195Z,32.20
2019-01-06T00:23:30.819Z,32.30
2019-01-06T00:26:14.567Z,32.30
2019-01-06T00:28:57.919Z,32.20
2019-01-06T00:31:58.533Z,32.20
2019-01-06T00:34:59.127Z,32.50
2019-01-06T00:38:00.269Z,32.10
2019-01-06T00:40:43.170Z,32.40
2019-01-06T00:43:29.382Z,32.40
2019-01-06T00:46:30.135Z,32.10
2019-01-06T00:52:30.060Z,32.10
2019-01-06T00:55:30.552Z,32.30
2019-01-06T00:58:30.958Z,32.30
2019-01-06T01:01:31.406Z,32.10
2019-01-06T01:04:32.707Z,32.30
2019-01-06T01:10:32.616Z,32.30
2019-01-06T01:13:33.647Z,32.20
2019-01-06T01:16:17.639Z,32.30
2019-01-06T01:19:18.132Z,32.10
2019-01-06T01:22:04.836Z,32.10
2019-01-06T01:25:05.784Z,32.00
2019-01-06T01:28:06.811Z,31.90
2019-01-06T01:30:49.811Z,32.10
2019-01-06T01:33:50.755Z,32.10
2019-01-06T01:36:36.756Z,32.10
2019-01-06T01:39:37.708Z,32.20
2019-01-06T01:42:24.111Z,32.20
2019-01-06T01:45:25.255Z,32.10
2019-01-06T01:48:11.611Z,32.10
2019-01-06T01:50:57.711Z,32.20
2019-01-06T01:53:58.726Z,32.10
2019-01-06T01:59:40.532Z,31.90
2019-01-06T02:02:21.811Z,32.10
2019-01-06T02:05:04.691Z,32.10
2019-01-06T02:11:06.106Z,32.20
2019-01-06T02:13:51.751Z,32.00
2019-01-06T02:16:53.005Z,32.00
2019-01-06T02:19:39.879Z,32.20
2019-01-06T02:22:40.457Z,31.90
2019-01-06T02:25:41.739Z,31.90
2019-01-06T02:28:25.375Z,31.90
2019-01-06T02:31:25.852Z,32.00
2019-01-06T02:34:09.380Z,32.10
2019-01-06T02:37:09.975Z,31.90
2019-01-06T02:40:11.290Z,32.00
2019-01-06T02:43:12.484Z,32.10
2019-01-06T02:45:53.735Z,32.00
2019-01-06T02:48:54.156Z,31.90
2019-01-06T02:51:55.381Z,32.00
2019-01-06T02:54:38.255Z,31.90
2019-01-06T02:57:24.836Z,32.10
2019-01-06T03:00:07.706Z,31.90
2019-01-06T03:02:54.106Z,31.90
2019-01-06T03:05:37.771Z,32.20
2019-01-06T03:11:21.710Z,31.70
2019-01-06T03:14:22.512Z,31.70
2019-01-06T03:17:06.159Z,31.70
2019-01-06T03:20:06.723Z,31.60
2019-01-06T03:23:07.818Z,31.70
2019-01-06T03:26:08.896Z,31.60
2019-01-06T03:28:52.435Z,31.50
2019-01-06T03:31:53.130Z,31.70
2019-01-06T03:34:36.820Z,31.50
2019-01-06T03:37:19.742Z,31.60
2019-01-06T03:40:20.581Z,31.70
2019-01-06T03:43:06.820Z,31.50
2019-01-06T03:45:49.852Z,31.50
2019-01-06T03:48:50.819Z,31.50
2019-01-06T03:51:52.097Z,32.10
2019-01-06T03:54:53.264Z,31.50
2019-01-06T03:57:40.605Z,31.60
2019-01-06T04:00:24.503Z,31.60
2019-01-06T04:03:07.674Z,31.70
2019-01-06T04:05:50.724Z,31.60
2019-01-06T04:08:51.405Z,31.70
2019-01-06T04:11:51.787Z,31.60
2019-01-06T04:14:52.153Z,31.60
2019-01-06T04:17:53.205Z,31.70
2019-01-06T04:20:36.739Z,31.70
2019-01-06T04:23:37.555Z,31.60
2019-01-06T04:26:24.151Z,31.70
2019-01-06T04:29:07.082Z,31.70
2019-01-06T04:31:53.230Z,31.60
2019-01-06T04:34:39.328Z,31.60
2019-01-06T04:37:39.811Z,31.60
2019-01-06T04:40:25.938Z,31.60
2019-01-06T04:43:09.605Z,31.70
2019-01-06T04:45:53.276Z,31.60
2019-01-06T04:54:35.448Z,31.60
2019-01-06T04:57:19.027Z,31.60
2019-01-06T05:00:19.684Z,31.60
2019-01-06T05:03:06.331Z,31.60
2019-01-06T05:06:07.223Z,31.70
2019-01-06T05:09:08.507Z,31.70
2019-01-06T05:11:51.648Z,31.60
2019-01-06T05:15:02.508Z,31.70
2019-01-06T05:17:49.018Z,31.70
2019-01-06T05:20:34.676Z,31.60
2019-01-06T05:23:17.875Z,31.20
2019-01-06T05:26:04.542Z,31.60
2019-01-06T05:29:05.626Z,31.70
2019-01-06T05:32:06.748Z,31.70
2019-01-06T05:41:06.914Z,31.70
2019-01-06T05:44:08.140Z,31.60
2019-01-06T05:46:51.704Z,31.70
2019-01-06T05:49:52.752Z,31.80
2019-01-06T05:52:38.771Z,31.70
2019-01-06T05:55:22.542Z,31.60
2019-01-06T05:58:08.698Z,31.60
2019-01-06T06:01:09.751Z,31.60
2019-01-06T06:04:10.711Z,31.70
2019-01-06T06:13:18.545Z,31.80
2019-01-06T06:19:43.470Z,31.60
2019-01-06T06:22:43.829Z,31.60
2019-01-06T06:25:26.866Z,31.60
2019-01-06T06:28:27.455Z,31.70
2019-01-06T06:31:28.415Z,31.70
2019-01-06T06:37:14.879Z,31.80
2019-01-06T06:40:15.300Z,31.60
2019-01-06T06:43:19.522Z,31.70
2019-01-06T06:46:20.730Z,31.80
2019-01-06T06:49:21.996Z,31.60
2019-01-06T06:55:24.543Z,31.70
2019-01-06T06:58:07.879Z,31.80
2019-01-06T07:01:09.054Z,31.70
2019-01-06T07:07:10.128Z,31.80
2019-01-06T07:10:11.399Z,31.70
2019-01-06T07:12:54.378Z,31.60
2019-01-06T07:15:54.883Z,31.80
2019-01-06T07:18:41.072Z,31.60
2019-01-06T07:21:24.032Z,31.70
2019-01-06T07:24:24.847Z,31.70
2019-01-06T07:33:27.688Z,31.00
2019-01-06T07:36:28.807Z,31.40
2019-01-06T07:39:29.427Z,31.60
2019-01-06T07:42:29.838Z,31.60
2019-01-06T07:45:13.466Z,31.60
2019-01-06T07:54:15.475Z,31.60
2019-01-06T07:56:59.538Z,31.60
2019-01-06T07:59:46.243Z,31.50
2019-01-06T08:02:31.092Z,31.60
2019-01-06T08:05:31.425Z,31.50
2019-01-06T08:11:31.815Z,31.50
2019-01-06T08:17:31.193Z,31.50
2019-01-06T08:20:32.830Z,31.70
2019-01-06T08:26:15.411Z,31.50
2019-01-06T08:29:01.776Z,31.60
2019-01-06T08:32:02.527Z,31.60
2019-01-06T08:35:03.701Z,31.60
2019-01-06T08:38:04.396Z,31.60
2019-01-06T08:40:51.318Z,31.60
2019-01-06T08:43:35.423Z,31.60
2019-01-06T08:46:35.859Z,31.50
2019-01-06T08:49:36.307Z,31.50
2019-01-06T08:58:44.544Z,31.80
2019-01-06T09:04:29.795Z,31.80
2019-01-06T09:07:30.764Z,31.80
2019-01-06T09:10:31.709Z,31.80
2019-01-06T09:13:18.011Z,31.90
2019-01-06T09:16:01.271Z,31.90
2019-01-06T09:18:47.083Z,31.90
2019-01-06T09:21:48.073Z,31.80
2019-01-06T09:24:34.596Z,31.80
2019-01-06T09:27:35.447Z,31.80
2019-01-06T09:30:36.559Z,31.90
2019-01-06T09:33:23.771Z,31.90
2019-01-06T09:36:24.912Z,31.80
2019-01-06T09:39:25.912Z,31.90
2019-01-06T09:42:11.486Z,31.70
2019-01-06T09:48:13.356Z,31.70
2019-01-06T09:51:14.460Z,31.50
2019-01-06T09:57:14.352Z,32.10
2019-01-06T10:00:14.898Z,31.50
2019-01-06T10:03:00.482Z,31.60
2019-01-06T10:11:47.371Z,31.40
2019-01-06T10:14:31.089Z,31.50
2019-01-06T10:17:17.080Z,31.50
2019-01-06T10:20:00.023Z,31.60
2019-01-06T10:23:00.658Z,31.60
2019-01-06T10:29:00.484Z,31.70
2019-01-06T10:32:01.545Z,31.70
2019-01-06T10:35:01.951Z,31.70
2019-01-06T10:38:03.245Z,31.80
2019-01-06T10:41:04.471Z,31.80
2019-01-06T10:43:48.147Z,31.70
2019-01-06T10:46:34.044Z,32.40
2019-01-06T10:49:35.346Z,31.90
2019-01-06T10:52:19.012Z,31.80
2019-01-06T10:55:20.292Z,31.90
2019-01-06T10:58:21.507Z,31.90
2019-01-06T11:01:07.618Z,31.90
2019-01-06T11:07:22.826Z,32.00
2019-01-06T11:10:06.432Z,32.00
2019-01-06T11:13:07.821Z,32.10
2019-01-06T11:18:52.970Z,32.90
2019-01-06T11:21:53.660Z,32.20
2019-01-06T11:24:54.908Z,32.50
2019-01-06T11:27:38.480Z,32.40
2019-01-06T11:30:39.263Z,32.50
2019-01-06T11:36:21.460Z,32.60
2019-01-06T11:39:05.127Z,32.40
2019-01-06T11:41:48.514Z,32.50
2019-01-06T11:47:33.703Z,32.60
2019-01-06T11:50:17.159Z,32.70
2019-01-06T11:53:18.099Z,32.80
2019-01-06T11:56:19.311Z,32.40
2019-01-06T11:59:02.627Z,32.60
2019-01-06T12:02:03.584Z,32.60
2019-01-06T12:07:49.906Z,32.40
2019-01-06T12:10:51.215Z,32.40
2019-01-06T12:16:35.456Z,32.50
2019-01-06T12:19:36.360Z,32.70
2019-01-06T12:22:37.619Z,32.70
2019-01-06T12:25:24.055Z,32.70
2019-01-06T12:28:25.291Z,32.60
2019-01-06T12:34:25.572Z,32.70
2019-01-06T12:37:09.344Z,32.80
2019-01-06T12:39:52.735Z,32.70
2019-01-06T12:42:53.878Z,32.80
2019-01-06T12:45:40.395Z,32.80
2019-01-06T12:48:26.626Z,32.70
2019-01-06T12:51:27.578Z,32.80
2019-01-06T12:54:28.739Z,32.80
2019-01-06T12:57:29.643Z,32.80
2019-01-06T13:03:31.346Z,32.90
2019-01-06T13:06:17.539Z,32.80
2019-01-06T13:09:03.838Z,32.80
2019-01-06T13:15:13.363Z,33.50
2019-01-06T13:18:15.416Z,32.90
2019-01-06T13:21:01.914Z,33.50
2019-01-06T13:23:48.343Z,33.00
2019-01-06T13:26:49.555Z,32.90
2019-01-06T13:29:32.387Z,33.00
2019-01-06T13:32:15.727Z,32.90
2019-01-06T13:37:58.487Z,33.40
2019-01-06T13:41:03.094Z,32.80
2019-01-06T13:44:01.536Z,32.80
2019-01-06T13:47:03.696Z,32.90
2019-01-06T13:50:04.257Z,32.80
2019-01-06T13:52:50.938Z,32.80
2019-01-06T13:55:51.731Z,32.70
2019-01-06T13:58:35.199Z,32.60
2019-01-06T14:01:36.243Z,32.60
2019-01-06T14:04:19.903Z,32.80
2019-01-06T14:07:05.821Z,32.70
2019-01-06T14:09:52.937Z,32.60
2019-01-06T14:12:53.511Z,32.50
2019-01-06T14:15:39.327Z,32.50
2019-01-06T14:18:40.368Z,32.60
2019-01-06T14:21:26.166Z,32.50
2019-01-06T14:24:26.683Z,32.60
2019-01-06T14:27:27.934Z,32.50
2019-01-06T14:30:29.079Z,32.50
2019-01-06T14:33:15.694Z,33.00
2019-01-06T14:35:58.678Z,32.50
2019-01-06T14:38:59.116Z,32.30
2019-01-06T14:41:45.550Z,32.50
2019-01-06T14:44:31.775Z,32.50
2019-01-06T14:50:32.477Z,32.40
2019-01-06T14:53:33.497Z,32.40
2019-01-06T14:56:34.008Z,32.30
2019-01-06T14:59:17.645Z,32.30
2019-01-06T15:02:00.931Z,32.40
2019-01-06T15:04:44.815Z,32.40
2019-01-06T15:07:31.883Z,32.90
2019-01-06T15:10:32.361Z,32.40
2019-01-06T15:13:15.191Z,32.80
2019-01-06T15:16:16.319Z,32.40
2019-01-06T15:19:04.615Z,32.30
2019-01-06T15:22:05.375Z,32.40
2019-01-06T15:25:05.803Z,32.40
2019-01-06T15:28:07.143Z,32.40
2019-01-06T15:30:50.623Z,32.40
2019-01-06T15:33:51.324Z,32.40
2019-01-06T15:36:52.535Z,32.40
2019-01-06T15:39:53.237Z,32.40
2019-01-06T15:42:54.272Z,32.50
2019-01-06T15:45:37.811Z,33.30
2019-01-06T15:48:20.596Z,33.30
2019-01-06T15:51:21.685Z,33.60
2019-01-06T15:54:05.138Z,33.50
2019-01-06T15:57:06.391Z,33.50
2019-01-06T16:00:06.920Z,33.60
2019-01-06T16:02:50.568Z,33.60
2019-01-06T16:05:51.425Z,33.60
2019-01-06T16:11:34.327Z,33.80
2019-01-06T16:14:20.883Z,33.50
2019-01-06T16:17:06.339Z,34.20
2019-01-06T16:20:07.255Z,33.80
2019-01-06T16:23:08.517Z,33.70
2019-01-06T16:25:55.095Z,33.70
2019-01-06T16:28:55.698Z,33.80
2019-01-06T16:31:56.916Z,33.90
2019-01-06T16:34:58.059Z,34.00
2019-01-06T16:37:58.524Z,33.80
2019-01-06T16:40:59.692Z,33.80
2019-01-06T16:44:00.967Z,34.10
2019-01-06T16:46:44.662Z,34.20
2019-01-06T16:49:45.813Z,33.90
2019-01-06T16:52:46.259Z,34.00
2019-01-06T16:58:47.903Z,34.20
2019-01-06T17:01:48.824Z,34.20
2019-01-06T17:04:49.911Z,34.20
2019-01-06T17:10:50.734Z,34.00
2019-01-06T17:13:51.739Z,34.00
2019-01-06T17:16:52.959Z,34.10
2019-01-06T17:19:53.756Z,34.10
2019-01-06T17:25:53.468Z,34.00
2019-01-06T17:28:53.955Z,34.00
2019-01-06T17:34:55.804Z,34.20
2019-01-06T17:37:39.520Z,34.20
2019-01-06T17:43:11.934Z,34.00
2019-01-06T17:45:58.275Z,34.30
2019-01-06T17:51:59.707Z,34.10
2019-01-06T17:55:00.838Z,34.20
2019-01-06T17:57:44.568Z,34.30
2019-01-06T18:03:44.207Z,34.10
2019-01-06T18:06:27.887Z,34.30
2019-01-06T18:09:11.476Z,34.10
2019-01-06T18:11:55.061Z,34.20
2019-01-06T18:14:55.723Z,34.20
2019-01-06T18:20:55.951Z,34.20
2019-01-06T18:23:42.203Z,34.30
2019-01-06T18:26:43.240Z,34.10
2019-01-06T18:29:43.647Z,34.30
2019-01-06T18:32:29.995Z,34.30
2019-01-06T18:35:11.213Z,34.20
2019-01-06T18:40:54.807Z,34.20
2019-01-06T18:43:41.016Z,34.50
2019-01-06T18:46:41.903Z,34.30
2019-01-06T18:49:28.137Z,34.40
2019-01-06T18:52:11.666Z,34.30
2019-01-06T18:54:55.199Z,34.40
2019-01-06T19:00:54.903Z,34.40
2019-01-06T19:06:56.483Z,34.30
2019-01-06T19:15:21.119Z,34.30
2019-01-06T19:18:06.934Z,34.40
2019-01-06T19:24:06.568Z,34.50
2019-01-06T19:26:49.538Z,34.50
2019-01-06T19:29:50.364Z,34.50
2019-01-06T19:32:51.696Z,34.60
2019-01-06T19:35:52.816Z,34.50
2019-01-06T19:38:54.011Z,34.60
2019-01-06T19:41:37.490Z,34.70
2019-01-06T19:50:37.955Z,34.60
2019-01-06T19:53:24.075Z,34.70
2019-01-06T19:56:24.714Z,34.50
2019-01-06T19:59:08.151Z,34.40
2019-01-06T20:02:09.070Z,34.40
2019-01-06T20:04:55.118Z,34.50
2019-01-06T20:07:55.415Z,34.60
2019-01-06T20:10:56.343Z,34.60
2019-01-06T20:13:56.708Z,34.80
2019-01-06T20:16:40.400Z,34.90
2019-01-06T20:19:41.017Z,34.80
2019-01-06T20:22:43.120Z,34.70
2019-01-06T20:25:44.166Z,34.80
2019-01-06T20:28:27.887Z,34.80
2019-01-06T20:31:28.692Z,34.80
2019-01-06T20:34:29.959Z,34.90
2019-01-06T20:37:13.566Z,34.40
2019-01-06T20:39:59.880Z,34.80
2019-01-06T20:45:59.162Z,34.80
2019-01-06T20:48:59.580Z,35.30
2019-01-06T20:51:46.167Z,34.80
2019-01-06T20:54:46.876Z,34.80
2019-01-06T21:00:29.463Z,34.70
2019-01-06T21:03:30.677Z,34.90
2019-01-06T21:12:39.995Z,34.80
2019-01-06T21:15:41.063Z,34.80
2019-01-06T21:18:27.587Z,34.80
2019-01-06T21:21:13.179Z,34.60
2019-01-06T21:27:13.189Z,34.90
2019-01-06T21:30:14.449Z,34.60
2019-01-06T21:33:15.599Z,34.80
2019-01-06T21:36:01.403Z,34.90
2019-01-06T21:39:02.434Z,35.00
2019-01-06T21:41:49.718Z,34.80
2019-01-06T21:44:50.368Z,35.00
2019-01-06T21:47:51.311Z,35.00
2019-01-06T21:50:52.507Z,35.00
2019-01-06T21:53:39.702Z,34.90
2019-01-06T21:56:25.935Z,34.90
2019-01-06T21:59:12.616Z,35.00
2019-01-06T22:01:58.763Z,35.10
2019-01-06T22:04:41.939Z,35.10
2019-01-06T22:07:42.343Z,34.70
2019-01-06T22:10:43.544Z,35.00
2019-01-06T22:13:27.286Z,35.00
2019-01-06T22:16:10.711Z,35.10
2019-01-06T22:18:54.187Z,35.10
2019-01-06T22:21:54.567Z,34.90
2019-01-06T22:24:55.859Z,35.20
2019-01-06T22:27:57.068Z,35.20
2019-01-06T22:30:58.024Z,35.20
2019-01-06T22:33:58.444Z,35.30
2019-01-06T22:36:59.507Z,35.30
2019-01-06T22:39:59.828Z,35.20
2019-01-06T22:42:43.419Z,35.10
2019-01-06T22:45:44.400Z,35.10
2019-01-06T22:48:28.077Z,35.20
2019-01-06T22:51:11.075Z,34.90
2019-01-06T22:54:12.235Z,35.20
2019-01-06T22:59:57.747Z,35.30
2019-01-06T23:02:40.959Z,35.40
2019-01-06T23:05:42.196Z,35.10
2019-01-06T23:08:25.786Z,35.20
2019-01-06T23:11:26.192Z,35.30
2019-01-06T23:14:27.318Z,35.50
2019-01-06T23:17:11.011Z,35.40
2019-01-06T23:19:54.436Z,35.50
2019-01-06T23:22:55.603Z,35.50
2019-01-06T23:28:37.940Z,35.70
2019-01-06T23:31:24.090Z,36.00
2019-01-06T23:37:05.639Z,35.10
2019-01-06T23:40:06.888Z,35.40
2019-01-06T23:42:50.431Z,35.50
2019-01-06T23:45:50.853Z,36.20
2019-01-06T23:48:33.704Z,35.50
2019-01-06T23:51:34.353Z,35.50
2019-01-06T23:57:19.407Z,35.40
